Gwinn, Michigan
Current Conditions -  °F | °C
As of 5:36 AM on Tuesday 27 Jan 2015 (Local Time) from KSAW Reporting Station
Light Snow Light Snow  
Wind Chill: 15°   Ceiling: 4300
Heat Index: 15°   Visibility: 5mi
Dew Point: 13°   Wind: 0mph
Humidity: 91%   Direction: NA
Pressure: 30.07"   Gusts: NA
Location:  46.28°N, 87.44°W
Report Text: KSAW 271036Z AUTO 00000KT 5SM -SN OVC043 M09/M11 A3007 RMK AO2 T10951107
Loading
Personal Weather Stations






























Interactive Weather Map New forecast layout! Learn more

10-Day Weather Forecast

Advertisements
Track Severe Weather on mobile